Time;durP1;ratioP1;P1;durP2;ratioP2;P2;SDS_P1;SDS_P2;PMS_P1;PMS_P2;Temp;Humidity;BMP_temperature;BMP_pressure;BME280_temperature;BME280_humidity;BME280_pressure;Samples;Min_cycle;Max_cycle;Signal;HPM_P1;HPM_P2
2023/07/30 00:01:30;;;;;;;1.70;1.30;;;;;;;;;;5068848;28;20024;-87
2023/07/30 00:03:56;;;;;;;2.22;1.15;;;;;;;;;;5071643;28;20024;-87
2023/07/30 00:06:22;;;;;;;2.13;1.40;;;;;;;;;;5067003;28;20085;-88
2023/07/30 00:08:48;;;;;;;1.38;1.27;;;;;;;;;;5068822;28;20024;-87
2023/07/30 00:11:14;;;;;;;1.88;1.30;;;;;;;;;;5051983;28;20244;-87
2023/07/30 00:13:40;;;;;;;1.20;1.10;;;;;;;;;;5068331;28;20024;-88
2023/07/30 00:16:06;;;;;;;1.88;1.23;;;;;;;;;;5068642;28;20035;-88
2023/07/30 00:18:31;;;;;;;2.95;1.30;;;;;;;;;;5050395;28;20029;-88
2023/07/30 00:20:57;;;;;;;1.38;1.25;;;;;;;;;;5069761;28;20020;-88
2023/07/30 00:23:23;;;;;;;1.70;1.50;;;;;;;;;;5046837;28;20499;-87
2023/07/30 00:25:49;;;;;;;1.55;1.20;;;;;;;;;;5069175;28;20475;-86
2023/07/30 00:28:15;;;;;;;0.95;0.88;;;;;;;;;;5073452;28;20044;-87
2023/07/30 00:30:41;;;;;;;2.25;1.38;;;;;;;;;;5073464;28;20036;-87
2023/07/30 00:33:07;;;;;;;2.08;1.23;;;;;;;;;;5052856;28;20047;-88
2023/07/30 00:35:34;;;;;;;1.33;1.00;;;;;;;;;;5069574;28;20545;-87
2023/07/30 00:38:00;;;;;;;1.27;1.17;;;;;;;;;;5070540;28;20020;-87
2023/07/30 00:40:26;;;;;;;1.85;1.23;;;;;;;;;;5059038;28;20027;-87
2023/07/30 00:42:52;;;;;;;1.45;1.23;;;;;;;;;;5073209;28;20036;-86
2023/07/30 00:45:18;;;;;;;1.15;1.00;;;;;;;;;;5071674;28;20107;-87
2023/07/30 00:47:44;;;;;;;1.50;1.27;;;;;;;;;;5068558;28;20136;-88
2023/07/30 00:50:11;;;;;;;2.15;1.17;;;;;;;;;;5070728;28;20532;-87
2023/07/30 00:52:37;;;;;;;1.25;1.02;;;;;;;;;;5070527;28;20025;-88
2023/07/30 00:55:03;;;;;;;1.10;1.00;;;;;;;;;;5049617;28;20403;-88
2023/07/30 00:57:30;;;;;;;1.55;1.45;;;;;;;;;;5058815;28;20028;-87
2023/07/30 00:59:56;;;;;;;1.13;1.00;;;;;;;;;;5081191;28;20536;-87
2023/07/30 01:02:22;;;;;;;1.40;1.20;;;;;;;;;;5068665;28;20059;-87
2023/07/30 01:04:49;;;;;;;1.40;1.30;;;;;;;;;;5069905;28;20470;-88
2023/07/30 01:07:14;;;;;;;2.60;1.48;;;;;;;;;;5049891;28;20432;-87
2023/07/30 01:09:40;;;;;;;1.38;1.13;;;;;;;;;;5068926;28;20020;-88
2023/07/30 01:12:07;;;;;;;1.83;0.98;;;;;;;;;;5081903;28;20537;-88
2023/07/30 01:14:33;;;;;;;1.42;1.10;;;;;;;;;;5062384;28;20399;-87
2023/07/30 01:16:59;;;;;;;3.35;1.17;;;;;;;;;;5067798;28;20052;-88
2023/07/30 01:19:25;;;;;;;1.92;1.20;;;;;;;;;;5065894;28;20116;-88
2023/07/30 01:21:51;;;;;;;1.35;1.08;;;;;;;;;;5049587;28;20028;-87
2023/07/30 01:24:17;;;;;;;1.13;0.80;;;;;;;;;;5083968;28;20040;-87
2023/07/30 01:26:47;;;;;;;1.85;1.13;;;;;;;;;;5067978;28;20039;-87
2023/07/30 01:29:23;;;;;;;1.93;1.07;;;;;;;;;;5062656;28;20507;-87
2023/07/30 01:31:52;;;;;;;1.30;1.20;;;;;;;;;;5084100;28;20027;-87
2023/07/30 01:34:19;;;;;;;2.30;1.13;;;;;;;;;;5068806;28;20028;-87
2023/07/30 01:36:46;;;;;;;1.25;1.10;;;;;;;;;;5069215;28;20112;-87
2023/07/30 01:39:12;;;;;;;1.00;0.90;;;;;;;;;;5066345;28;20037;-87
2023/07/30 01:41:38;;;;;;;1.25;1.15;;;;;;;;;;5067742;28;20509;-87
2023/07/30 01:44:04;;;;;;;1.80;1.40;;;;;;;;;;5066366;28;20040;-88
2023/07/30 01:46:30;;;;;;;1.60;1.38;;;;;;;;;;5064415;28;20044;-87
2023/07/30 01:48:56;;;;;;;1.10;1.00;;;;;;;;;;5067373;28;20033;-88
2023/07/30 01:51:22;;;;;;;2.22;1.10;;;;;;;;;;5067658;28;20398;-87
2023/07/30 01:53:48;;;;;;;1.55;1.02;;;;;;;;;;5068351;28;20422;-88
2023/07/30 01:56:13;;;;;;;1.33;1.10;;;;;;;;;;5068408;28;20475;-87
2023/07/30 01:58:40;;;;;;;2.25;1.00;;;;;;;;;;5067854;28;20532;-88
2023/07/30 02:01:06;;;;;;;1.65;1.17;;;;;;;;;;5067278;28;20386;-88
2023/07/30 02:03:31;;;;;;;1.13;0.93;;;;;;;;;;5049594;28;20028;-87
2023/07/30 02:05:57;;;;;;;1.67;1.23;;;;;;;;;;5067155;28;20380;-87
2023/07/30 02:08:23;;;;;;;0.85;0.85;;;;;;;;;;5068870;28;20445;-88
2023/07/30 02:10:59;;;;;;;1.70;1.15;;;;;;;;;;5068308;28;20036;-86
2023/07/30 02:13:25;;;;;;;1.23;0.98;;;;;;;;;;5068533;28;20077;-87
2023/07/30 02:15:51;;;;;;;0.82;0.82;;;;;;;;;;5068295;28;20476;-88
2023/07/30 02:18:17;;;;;;;1.00;0.85;;;;;;;;;;5070071;28;20057;-87
2023/07/30 02:20:43;;;;;;;1.48;1.10;;;;;;;;;;5073195;28;20486;-87
2023/07/30 02:23:09;;;;;;;1.05;0.88;;;;;;;;;;5067838;28;20024;-86
2023/07/30 02:25:35;;;;;;;1.10;1.00;;;;;;;;;;5066605;28;20098;-87
2023/07/30 02:28:01;;;;;;;1.30;1.02;;;;;;;;;;5068748;28;20043;-88
2023/07/30 02:30:28;;;;;;;1.73;1.10;;;;;;;;;;5066815;28;20054;-87
2023/07/30 02:32:54;;;;;;;1.42;0.90;;;;;;;;;;5066088;28;20024;-87
2023/07/30 02:35:19;;;;;;;1.73;1.20;;;;;;;;;;5067564;28;20040;-87
2023/07/30 02:37:45;;;;;;;0.95;0.90;;;;;;;;;;5067294;28;20032;-87
2023/07/30 02:40:12;;;;;;;1.15;1.00;;;;;;;;;;5062527;28;20031;-87
2023/07/30 02:42:38;;;;;;;1.20;0.90;;;;;;;;;;5068264;28;20051;-86
2023/07/30 02:45:05;;;;;;;1.02;0.82;;;;;;;;;;5067653;28;20024;-87
2023/07/30 02:47:31;;;;;;;1.20;1.10;;;;;;;;;;5066201;28;20024;-87
2023/07/30 02:49:57;;;;;;;1.17;1.00;;;;;;;;;;5067357;28;20789;-86
2023/07/30 02:52:22;;;;;;;0.80;0.80;;;;;;;;;;5067096;28;20461;-88
2023/07/30 02:54:48;;;;;;;1.45;1.13;;;;;;;;;;5067806;28;20507;-87
2023/07/30 02:57:14;;;;;;;1.30;1.10;;;;;;;;;;5063834;28;20017;-87
2023/07/30 02:59:41;;;;;;;0.98;0.90;;;;;;;;;;5050091;28;20037;-87
2023/07/30 03:02:07;;;;;;;1.13;0.80;;;;;;;;;;5067043;28;20463;-88
2023/07/30 03:04:33;;;;;;;1.08;1.05;;;;;;;;;;5066169;28;20036;-88
2023/07/30 03:06:59;;;;;;;1.30;1.20;;;;;;;;;;5067015;28;20032;-88
2023/07/30 03:09:25;;;;;;;0.80;0.80;;;;;;;;;;5064806;28;20033;-87
2023/07/30 03:11:51;;;;;;;1.98;1.00;;;;;;;;;;5066671;28;20086;-88
2023/07/30 03:14:20;;;;;;;2.45;1.20;;;;;;;;;;5061557;28;20133;-87
2023/07/30 03:16:46;;;;;;;1.52;0.93;;;;;;;;;;5068341;28;20029;-88
2023/07/30 03:19:12;;;;;;;1.15;0.90;;;;;;;;;;5066713;28;20031;-88
2023/07/30 03:21:38;;;;;;;1.48;1.05;;;;;;;;;;5066192;28;20402;-87
2023/07/30 03:24:04;;;;;;;1.52;1.10;;;;;;;;;;5066885;28;20239;-87
2023/07/30 03:26:30;;;;;;;2.03;1.05;;;;;;;;;;5048899;28;20402;-86
2023/07/30 03:28:56;;;;;;;0.95;0.90;;;;;;;;;;5061712;28;20044;-86
2023/07/30 03:31:22;;;;;;;1.67;0.98;;;;;;;;;;5063644;28;20025;-87
2023/07/30 03:33:48;;;;;;;1.08;0.90;;;;;;;;;;5067563;28;20471;-86
2023/07/30 03:36:14;;;;;;;1.02;0.93;;;;;;;;;;5066331;28;20029;-86
2023/07/30 03:38:41;;;;;;;0.85;0.70;;;;;;;;;;5067498;28;20031;-87
2023/07/30 03:41:07;;;;;;;1.75;1.10;;;;;;;;;;5063293;28;20033;-87
2023/07/30 03:43:33;;;;;;;0.98;0.90;;;;;;;;;;5068429;28;20036;-86
2023/07/30 03:45:59;;;;;;;1.27;0.90;;;;;;;;;;5067602;28;20033;-86
2023/07/30 03:48:25;;;;;;;0.80;0.80;;;;;;;;;;5064137;28;20059;-87
2023/07/30 03:50:51;;;;;;;0.88;0.80;;;;;;;;;;5068592;28;20021;-87
2023/07/30 03:53:17;;;;;;;1.30;1.20;;;;;;;;;;5065923;28;20086;-87
2023/07/30 03:55:43;;;;;;;1.10;1.00;;;;;;;;;;5065527;28;20032;-88
2023/07/30 03:58:09;;;;;;;1.02;0.93;;;;;;;;;;5068632;28;20039;-87
2023/07/30 04:00:35;;;;;;;1.00;0.90;;;;;;;;;;5070676;28;20024;-87
2023/07/30 04:03:01;;;;;;;1.05;0.95;;;;;;;;;;5069136;28;20025;-87
2023/07/30 04:05:27;;;;;;;1.30;1.05;;;;;;;;;;5071958;28;20036;-88
2023/07/30 04:07:53;;;;;;;1.55;0.98;;;;;;;;;;5070953;28;20020;-88
2023/07/30 04:10:19;;;;;;;1.10;0.98;;;;;;;;;;5071695;28;20043;-89
2023/07/30 04:12:45;;;;;;;1.23;0.90;;;;;;;;;;5071497;28;20024;-88
2023/07/30 04:15:11;;;;;;;1.50;0.95;;;;;;;;;;5065888;28;20020;-89
2023/07/30 04:17:37;;;;;;;1.00;0.90;;;;;;;;;;5086223;28;20089;-89
2023/07/30 04:20:04;;;;;;;1.35;1.10;;;;;;;;;;5071313;28;20032;-89
2023/07/30 04:22:30;;;;;;;1.45;1.25;;;;;;;;;;5072310;28;20025;-88
2023/07/30 04:24:56;;;;;;;1.35;0.90;;;;;;;;;;5071283;28;20028;-89
2023/07/30 04:27:22;;;;;;;1.13;1.00;;;;;;;;;;5071323;28;20040;-88
2023/07/30 04:29:48;;;;;;;1.33;1.00;;;;;;;;;;5070304;28;20051;-89
2023/07/30 04:32:14;;;;;;;8.55;1.08;;;;;;;;;;5070621;28;20395;-89
2023/07/30 04:34:40;;;;;;;1.10;1.00;;;;;;;;;;5069616;28;20076;-89
2023/07/30 04:37:06;;;;;;;0.75;0.75;;;;;;;;;;5053253;28;20112;-89
2023/07/30 04:39:33;;;;;;;0.80;0.80;;;;;;;;;;5070403;28;20070;-88
2023/07/30 04:41:59;;;;;;;1.75;1.10;;;;;;;;;;5069879;28;20112;-89
2023/07/30 04:44:24;;;;;;;1.20;0.80;;;;;;;;;;5068947;28;20029;-89
2023/07/30 04:46:50;;;;;;;0.75;0.75;;;;;;;;;;5071094;28;20036;-89
2023/07/30 04:49:16;;;;;;;1.15;0.77;;;;;;;;;;5071081;28;20047;-88
2023/07/30 04:51:42;;;;;;;1.33;0.82;;;;;;;;;;5069356;28;20047;-88
2023/07/30 04:54:08;;;;;;;1.15;0.90;;;;;;;;;;5070464;28;20142;-88
2023/07/30 04:56:34;;;;;;;1.00;0.80;;;;;;;;;;5070622;28;20039;-88
2023/07/30 04:59:01;;;;;;;0.70;0.70;;;;;;;;;;5072330;28;20016;-88
2023/07/30 05:01:27;;;;;;;0.85;0.63;;;;;;;;;;5068842;28;20033;-89
2023/07/30 05:03:53;;;;;;;1.08;0.98;;;;;;;;;;5070247;28;20021;-89
2023/07/30 05:06:19;;;;;;;1.35;1.08;;;;;;;;;;5067649;28;20146;-87
2023/07/30 05:08:45;;;;;;;1.02;0.90;;;;;;;;;;5064866;28;20673;-88
2023/07/30 05:11:11;;;;;;;1.05;0.90;;;;;;;;;;5068550;28;20066;-88
2023/07/30 05:13:37;;;;;;;1.05;0.90;;;;;;;;;;5051450;28;20391;-88
2023/07/30 05:16:03;;;;;;;1.05;0.90;;;;;;;;;;5069658;28;20025;-88
2023/07/30 05:18:29;;;;;;;0.70;0.70;;;;;;;;;;5068481;28;20036;-86
2023/07/30 05:20:55;;;;;;;0.88;0.82;;;;;;;;;;5076379;28;20029;-87
2023/07/30 05:23:21;;;;;;;1.65;1.02;;;;;;;;;;5069923;28;20036;-88
2023/07/30 05:25:47;;;;;;;0.98;0.70;;;;;;;;;;5064652;28;20101;-88
2023/07/30 05:28:13;;;;;;;1.20;0.98;;;;;;;;;;5068805;28;20123;-88
2023/07/30 05:30:39;;;;;;;0.95;0.80;;;;;;;;;;5068688;28;20111;-88
2023/07/30 05:33:05;;;;;;;0.60;0.60;;;;;;;;;;5050320;28;20103;-88
2023/07/30 05:35:31;;;;;;;1.30;0.90;;;;;;;;;;5048180;28;20032;-88
2023/07/30 05:37:57;;;;;;;1.75;1.20;;;;;;;;;;5064961;28;20460;-88
2023/07/30 05:40:23;;;;;;;1.73;1.20;;;;;;;;;;5063957;28;20029;-88
2023/07/30 05:42:49;;;;;;;0.82;0.82;;;;;;;;;;5068992;28;20044;-88
2023/07/30 05:45:15;;;;;;;0.75;0.75;;;;;;;;;;5068018;28;20033;-88
2023/07/30 05:47:41;;;;;;;1.60;0.98;;;;;;;;;;5068720;28;20029;-87
2023/07/30 05:50:08;;;;;;;1.38;0.98;;;;;;;;;;5066783;28;20037;-88
2023/07/30 05:52:34;;;;;;;1.02;0.80;;;;;;;;;;5068843;28;20024;-88
2023/07/30 05:55:00;;;;;;;0.88;0.88;;;;;;;;;;5068915;28;20070;-88
2023/07/30 05:57:26;;;;;;;0.82;0.80;;;;;;;;;;5049651;28;20396;-88
2023/07/30 05:59:52;;;;;;;0.95;0.90;;;;;;;;;;5049545;28;20124;-88
2023/07/30 06:02:18;;;;;;;0.80;0.80;;;;;;;;;;5069164;28;20486;-88
2023/07/30 06:04:44;;;;;;;4.78;0.90;;;;;;;;;;5064028;28;20442;-88
2023/07/30 06:07:10;;;;;;;4.75;0.98;;;;;;;;;;5067777;28;20028;-87
2023/07/30 06:09:36;;;;;;;0.70;0.70;;;;;;;;;;5067622;28;20028;-88
2023/07/30 06:12:03;;;;;;;1.17;0.80;;;;;;;;;;5064223;28;20094;-88
2023/07/30 06:14:29;;;;;;;0.90;0.90;;;;;;;;;;5069402;28;20047;-88
2023/07/30 06:16:55;;;;;;;0.95;0.80;;;;;;;;;;5067918;28;20467;-88
2023/07/30 06:19:21;;;;;;;1.48;0.85;;;;;;;;;;5067772;28;20469;-88
2023/07/30 06:21:47;;;;;;;0.82;0.77;;;;;;;;;;5068464;28;20471;-85
2023/07/30 06:24:13;;;;;;;1.02;0.88;;;;;;;;;;5068448;28;20024;-87
2023/07/30 06:26:39;;;;;;;0.70;0.70;;;;;;;;;;5068572;28;20039;-88
2023/07/30 06:29:05;;;;;;;0.90;0.90;;;;;;;;;;5068965;28;20045;-87
2023/07/30 06:31:31;;;;;;;1.20;1.10;;;;;;;;;;5068414;28;20032;-88
2023/07/30 06:33:57;;;;;;;0.77;0.77;;;;;;;;;;5068655;28;20051;-88
2023/07/30 06:36:23;;;;;;;0.90;0.88;;;;;;;;;;5067322;28;20024;-87
2023/07/30 06:38:49;;;;;;;0.80;0.80;;;;;;;;;;5068455;28;20032;-87
2023/07/30 06:41:15;;;;;;;1.08;0.90;;;;;;;;;;5068490;28;20089;-88
2023/07/30 06:43:41;;;;;;;1.13;1.00;;;;;;;;;;5067327;28;20635;-87
2023/07/30 06:46:07;;;;;;;0.70;0.70;;;;;;;;;;5068965;28;20033;-87
2023/07/30 06:48:33;;;;;;;1.05;0.95;;;;;;;;;;5080109;28;20032;-87
2023/07/30 06:50:58;;;;;;;1.15;0.85;;;;;;;;;;5067422;28;20032;-87
2023/07/30 06:53:24;;;;;;;1.63;1.13;;;;;;;;;;5067295;28;20024;-88
2023/07/30 06:55:50;;;;;;;2.08;0.80;;;;;;;;;;5067858;28;20025;-89
2023/07/30 06:58:16;;;;;;;1.02;0.90;;;;;;;;;;5067119;28;20029;-89
2023/07/30 07:00:42;;;;;;;0.80;0.80;;;;;;;;;;5068327;28;20024;-89
2023/07/30 07:03:08;;;;;;;0.63;0.63;;;;;;;;;;5068419;28;20040;-88
2023/07/30 07:05:34;;;;;;;0.88;0.60;;;;;;;;;;5067303;28;20036;-88
2023/07/30 07:08:00;;;;;;;0.77;0.77;;;;;;;;;;5071179;28;20029;-89
2023/07/30 07:10:26;;;;;;;1.00;0.90;;;;;;;;;;5067027;28;20031;-88
2023/07/30 07:12:52;;;;;;;1.08;0.77;;;;;;;;;;5067394;28;20111;-89
2023/07/30 07:15:19;;;;;;;1.20;1.00;;;;;;;;;;5068448;28;20021;-88
2023/07/30 07:17:45;;;;;;;0.80;0.80;;;;;;;;;;5068296;28;20021;-88
2023/07/30 07:20:11;;;;;;;1.02;0.85;;;;;;;;;;5068000;28;20021;-88
2023/07/30 07:22:37;;;;;;;0.90;0.90;;;;;;;;;;5050512;28;20021;-89
2023/07/30 07:25:03;;;;;;;1.02;0.70;;;;;;;;;;5069014;28;20102;-88
2023/07/30 07:27:29;;;;;;;0.70;0.70;;;;;;;;;;5067359;28;20169;-88
2023/07/30 07:29:56;;;;;;;1.50;1.00;;;;;;;;;;5068259;28;20048;-89
2023/07/30 07:32:22;;;;;;;0.90;0.90;;;;;;;;;;5047731;28;20024;-87
2023/07/30 07:34:48;;;;;;;0.90;0.82;;;;;;;;;;5073877;28;20024;-88
2023/07/30 07:37:15;;;;;;;0.80;0.70;;;;;;;;;;5086057;28;20111;-74
2023/07/30 07:39:41;;;;;;;0.98;0.93;;;;;;;;;;5065522;28;20016;-76
2023/07/30 07:42:07;;;;;;;0.90;0.90;;;;;;;;;;5068543;28;20126;-75
2023/07/30 07:44:33;;;;;;;1.10;0.93;;;;;;;;;;5070264;28;20051;-76
2023/07/30 07:46:59;;;;;;;1.02;0.90;;;;;;;;;;5070341;28;20107;-78
2023/07/30 07:49:25;;;;;;;0.70;0.70;;;;;;;;;;5069885;28;20487;-76
2023/07/30 07:51:51;;;;;;;1.27;0.77;;;;;;;;;;5069776;28;20024;-76
2023/07/30 07:54:17;;;;;;;1.35;1.02;;;;;;;;;;5069095;28;20036;-75
2023/07/30 07:56:43;;;;;;;1.00;0.95;;;;;;;;;;5071784;28;20098;-75
2023/07/30 07:59:09;;;;;;;1.30;1.02;;;;;;;;;;5073748;28;20028;-75
2023/07/30 08:01:35;;;;;;;1.80;1.10;;;;;;;;;;5070838;28;20056;-76
2023/07/30 08:04:02;;;;;;;1.20;1.10;;;;;;;;;;5077899;28;20040;-75
2023/07/30 08:06:28;;;;;;;1.83;1.25;;;;;;;;;;5072890;28;20036;-77
2023/07/30 08:08:54;;;;;;;1.30;1.10;;;;;;;;;;5076422;28;20024;-76
2023/07/30 08:11:20;;;;;;;1.58;0.80;;;;;;;;;;5077905;28;20053;-76
2023/07/30 08:13:46;;;;;;;1.15;1.02;;;;;;;;;;5075813;28;20024;-76
2023/07/30 08:16:12;;;;;;;1.23;1.08;;;;;;;;;;5069715;28;20093;-76
2023/07/30 08:18:38;;;;;;;1.40;1.10;;;;;;;;;;5069397;28;22260;-76
2023/07/30 08:21:04;;;;;;;1.25;1.15;;;;;;;;;;5069172;28;20502;-77
2023/07/30 08:23:30;;;;;;;1.27;1.17;;;;;;;;;;5070715;28;20086;-77
2023/07/30 08:25:56;;;;;;;1.27;1.02;;;;;;;;;;5070076;28;20033;-75
2023/07/30 08:28:22;;;;;;;1.33;1.10;;;;;;;;;;5071232;28;20433;-76
2023/07/30 08:30:48;;;;;;;0.90;0.90;;;;;;;;;;5073046;28;20037;-74
2023/07/30 08:33:14;;;;;;;1.02;0.98;;;;;;;;;;5071917;28;20032;-76
2023/07/30 08:35:40;;;;;;;0.77;0.77;;;;;;;;;;5070930;28;20071;-77
2023/07/30 08:38:06;;;;;;;1.67;0.80;;;;;;;;;;5071172;28;20032;-77
2023/07/30 08:40:32;;;;;;;1.00;0.90;;;;;;;;;;5070232;28;20029;-75
2023/07/30 08:42:58;;;;;;;1.30;1.10;;;;;;;;;;5070703;28;20062;-76
2023/07/30 08:45:24;;;;;;;2.20;1.10;;;;;;;;;;5068305;28;20040;-74
2023/07/30 08:47:50;;;;;;;0.80;0.80;;;;;;;;;;5070385;28;20136;-76
2023/07/30 08:50:16;;;;;;;0.90;0.90;;;;;;;;;;5069212;28;20431;-75
2023/07/30 08:52:43;;;;;;;3.45;1.00;;;;;;;;;;5066945;28;20054;-76
2023/07/30 08:55:10;;;;;;;1.20;1.10;;;;;;;;;;5071304;28;20524;-75
2023/07/30 08:57:36;;;;;;;1.10;0.98;;;;;;;;;;5069491;28;20024;-76
2023/07/30 09:00:05;;;;;;;1.42;1.33;;;;;;;;;;5062592;28;20146;-76
2023/07/30 09:02:34;;;;;;;1.60;1.17;;;;;;;;;;5067054;28;20490;-76
2023/07/30 09:05:01;;;;;;;1.38;1.05;;;;;;;;;;5055537;28;20399;-74
2023/07/30 09:07:27;;;;;;;1.52;1.30;;;;;;;;;;5070848;28;20467;-75
2023/07/30 09:09:54;;;;;;;1.60;1.10;;;;;;;;;;5070029;28;20028;-74
2023/07/30 09:12:20;;;;;;;1.05;0.98;;;;;;;;;;5070641;28;20116;-75
2023/07/30 09:14:51;;;;;;;1.33;1.10;;;;;;;;;;5069806;28;20024;-74
2023/07/30 09:17:18;;;;;;;3.22;1.15;;;;;;;;;;5070555;28;20468;-75
2023/07/30 09:19:46;;;;;;;1.25;1.15;;;;;;;;;;5068179;28;20115;-75
2023/07/30 09:22:12;;;;;;;1.02;0.90;;;;;;;;;;5069472;28;20031;-75
2023/07/30 09:24:42;;;;;;;2.33;1.33;;;;;;;;;;5066915;28;20029;-75
2023/07/30 09:27:08;;;;;;;2.13;1.30;;;;;;;;;;5060019;28;20040;-74
2023/07/30 09:29:34;;;;;;;1.30;1.20;;;;;;;;;;5057294;28;20143;-73
2023/07/30 09:32:00;;;;;;;1.85;0.80;;;;;;;;;;5056538;28;20682;-75
2023/07/30 09:34:26;;;;;;;1.17;1.08;;;;;;;;;;5069171;28;20032;-76
2023/07/30 09:36:53;;;;;;;1.30;1.20;;;;;;;;;;5061592;28;20020;-75
2023/07/30 09:39:20;;;;;;;1.67;1.00;;;;;;;;;;5068839;28;20033;-77
2023/07/30 09:41:46;;;;;;;1.80;1.20;;;;;;;;;;5064983;28;20039;-76
2023/07/30 09:44:13;;;;;;;1.52;1.20;;;;;;;;;;5061631;28;20035;-76
2023/07/30 09:46:45;;;;;;;2.25;1.08;;;;;;;;;;5061848;28;20070;-75
2023/07/30 09:49:11;;;;;;;0.90;0.90;;;;;;;;;;5063506;28;20534;-75
2023/07/30 09:51:39;;;;;;;1.13;1.02;;;;;;;;;;5057690;28;20025;-75
2023/07/30 09:54:06;;;;;;;4.05;1.10;;;;;;;;;;5062452;28;20750;-75
2023/07/30 09:56:32;;;;;;;1.20;1.10;;;;;;;;;;5059666;28;20535;-76
2023/07/30 09:58:58;;;;;;;0.95;0.80;;;;;;;;;;5065042;28;20511;-75
2023/07/30 10:01:26;;;;;;;1.60;1.20;;;;;;;;;;5067232;28;20710;-75
2023/07/30 10:03:54;;;;;;;1.75;1.27;;;;;;;;;;5049399;28;20032;-76
2023/07/30 10:06:20;;;;;;;1.10;1.00;;;;;;;;;;5055521;28;20427;-75
2023/07/30 10:08:46;;;;;;;1.02;0.90;;;;;;;;;;5061724;28;20058;-75
2023/07/30 10:11:12;;;;;;;1.15;1.02;;;;;;;;;;5066877;28;20474;-76
2023/07/30 10:13:39;;;;;;;0.82;0.80;;;;;;;;;;5064082;28;20036;-75
2023/07/30 10:16:10;;;;;;;1.05;0.82;;;;;;;;;;5065693;28;20125;-75
2023/07/30 10:18:43;;;;;;;1.20;0.90;;;;;;;;;;5079420;28;20054;-75
2023/07/30 10:21:10;;;;;;;1.85;1.00;;;;;;;;;;5056748;28;20025;-75
2023/07/30 10:23:36;;;;;;;1.20;0.98;;;;;;;;;;5064704;28;20048;-76
2023/07/30 10:26:14;;;;;;;1.27;1.17;;;;;;;;;;5067599;28;20040;-76
2023/07/30 10:28:43;;;;;;;1.25;0.98;;;;;;;;;;5069648;28;20048;-76
2023/07/30 10:31:13;;;;;;;2.28;1.10;;;;;;;;;;5064709;28;20024;-76
2023/07/30 10:33:44;;;;;;;1.60;1.02;;;;;;;;;;5060985;28;20104;-76
2023/07/30 10:36:10;;;;;;;1.88;1.50;;;;;;;;;;5070808;28;20027;-76
2023/07/30 10:38:36;;;;;;;0.95;0.93;;;;;;;;;;5068301;28;20042;-76
2023/07/30 10:41:17;;;;;;;0.95;0.90;;;;;;;;;;5064795;28;20040;-75
2023/07/30 10:43:44;;;;;;;1.20;1.10;;;;;;;;;;5067667;28;20033;-76
2023/07/30 10:46:12;;;;;;;2.00;1.33;;;;;;;;;;5066355;28;20043;-76
2023/07/30 10:48:42;;;;;;;1.40;1.13;;;;;;;;;;5068559;28;20033;-76
2023/07/30 10:51:10;;;;;;;1.55;1.13;;;;;;;;;;5063362;28;20027;-75
2023/07/30 10:53:36;;;;;;;1.33;1.23;;;;;;;;;;5067354;28;20482;-75
2023/07/30 10:56:03;;;;;;;3.33;1.50;;;;;;;;;;5062114;28;20475;-76
2023/07/30 10:58:33;;;;;;;2.80;1.58;;;;;;;;;;5057361;28;20032;-76
2023/07/30 11:00:59;;;;;;;3.97;1.58;;;;;;;;;;5066203;28;20777;-75
2023/07/30 11:03:26;;;;;;;2.05;1.25;;;;;;;;;;5068192;28;20029;-75
2023/07/30 11:05:52;;;;;;;1.90;1.45;;;;;;;;;;5067475;28;20031;-76
2023/07/30 11:08:18;;;;;;;2.45;1.38;;;;;;;;;;5068139;28;20539;-76
2023/07/30 11:10:46;;;;;;;2.30;1.30;;;;;;;;;;5072957;28;20059;-76
2023/07/30 11:13:13;;;;;;;2.97;1.50;;;;;;;;;;5071962;28;20055;-76
2023/07/30 11:15:43;;;;;;;2.78;1.63;;;;;;;;;;5067205;28;20032;-76
2023/07/30 11:18:09;;;;;;;2.28;1.60;;;;;;;;;;5070842;28;20457;-75
2023/07/30 11:20:35;;;;;;;5.05;1.60;;;;;;;;;;5079999;28;20150;-76
2023/07/30 11:23:01;;;;;;;1.52;1.17;;;;;;;;;;5076315;28;20035;-76
2023/07/30 11:25:27;;;;;;;2.25;1.55;;;;;;;;;;5071724;28;20032;-76
2023/07/30 11:27:53;;;;;;;2.38;1.50;;;;;;;;;;5065576;28;20453;-76
2023/07/30 11:30:19;;;;;;;1.63;1.20;;;;;;;;;;5070079;28;20427;-76
2023/07/30 11:32:45;;;;;;;1.88;1.33;;;;;;;;;;5076847;28;20514;-77
2023/07/30 11:35:12;;;;;;;2.40;1.42;;;;;;;;;;5072642;28;20490;-76
2023/07/30 11:37:40;;;;;;;1.70;1.13;;;;;;;;;;5078749;28;20020;-77
2023/07/30 11:40:08;;;;;;;1.80;1.60;;;;;;;;;;5068219;28;20399;-74
2023/07/30 11:42:34;;;;;;;1.80;1.27;;;;;;;;;;5073284;28;20017;-76
2023/07/30 11:45:18;;;;;;;2.83;1.30;;;;;;;;;;5072038;28;20162;-74
2023/07/30 11:47:44;;;;;;;2.03;1.33;;;;;;;;;;5055565;28;20037;-75
2023/07/30 11:50:09;;;;;;;2.00;1.38;;;;;;;;;;5069129;28;20498;-74
2023/07/30 11:52:36;;;;;;;3.00;1.40;;;;;;;;;;5074557;28;20013;-73
2023/07/30 11:55:05;;;;;;;1.48;1.15;;;;;;;;;;5070497;28;20028;-74
2023/07/30 11:57:37;;;;;;;2.42;1.52;;;;;;;;;;5071600;28;20021;-76
2023/07/30 12:00:03;;;;;;;1.70;1.40;;;;;;;;;;5061326;28;20461;-80
2023/07/30 12:02:30;;;;;;;3.83;1.70;;;;;;;;;;5075561;28;20566;-75
2023/07/30 12:04:56;;;;;;;3.83;1.40;;;;;;;;;;5071018;28;20036;-75
2023/07/30 12:07:25;;;;;;;1.88;1.48;;;;;;;;;;5072431;28;20032;-74
2023/07/30 12:09:51;;;;;;;3.28;1.88;;;;;;;;;;5070257;28;20059;-74
2023/07/30 12:12:17;;;;;;;5.00;1.73;;;;;;;;;;5071888;28;20033;-73
2023/07/30 12:14:45;;;;;;;2.65;1.63;;;;;;;;;;5072016;28;20032;-74
2023/07/30 12:17:11;;;;;;;2.67;1.67;;;;;;;;;;5070902;28;20107;-75
2023/07/30 12:19:37;;;;;;;2.60;1.48;;;;;;;;;;5064865;28;20032;-74
2023/07/30 12:22:03;;;;;;;5.72;1.85;;;;;;;;;;5071721;28;20755;-76
2023/07/30 12:24:29;;;;;;;2.47;1.30;;;;;;;;;;5072628;28;20070;-75
2023/07/30 12:26:55;;;;;;;1.40;1.15;;;;;;;;;;5064592;28;20028;-75
2023/07/30 12:29:21;;;;;;;5.93;1.60;;;;;;;;;;5059970;28;20044;-74
2023/07/30 12:31:47;;;;;;;1.13;1.00;;;;;;;;;;5067859;28;20590;-75
2023/07/30 12:34:13;;;;;;;1.85;1.00;;;;;;;;;;5070707;28;20027;-75
2023/07/30 12:36:39;;;;;;;1.42;1.13;;;;;;;;;;5069927;28;20119;-75
2023/07/30 12:39:05;;;;;;;1.50;1.10;;;;;;;;;;5069770;28;20031;-75
2023/07/30 12:41:31;;;;;;;2.17;1.13;;;;;;;;;;5073573;28;20118;-74
2023/07/30 12:43:57;;;;;;;2.58;1.60;;;;;;;;;;5071178;28;20487;-74
2023/07/30 12:46:23;;;;;;;1.23;1.00;;;;;;;;;;5062469;28;20047;-75
2023/07/30 12:48:49;;;;;;;1.42;0.95;;;;;;;;;;5060882;28;20031;-75
2023/07/30 12:51:15;;;;;;;1.20;1.10;;;;;;;;;;5073628;28;20029;-75
2023/07/30 12:53:41;;;;;;;1.10;1.00;;;;;;;;;;5069176;28;20017;-74
2023/07/30 12:56:07;;;;;;;1.38;1.00;;;;;;;;;;5063744;28;20028;-76
2023/07/30 12:58:33;;;;;;;1.70;1.05;;;;;;;;;;5067398;28;20039;-75
2023/07/30 13:01:02;;;;;;;2.65;1.10;;;;;;;;;;5070285;28;20039;-75
2023/07/30 13:03:28;;;;;;;4.28;1.88;;;;;;;;;;5073148;28;20052;-75
2023/07/30 13:05:54;;;;;;;2.33;1.30;;;;;;;;;;5078621;28;20063;-75
2023/07/30 13:08:21;;;;;;;1.10;1.00;;;;;;;;;;5072414;28;20032;-74
2023/07/30 13:10:47;;;;;;;1.20;1.00;;;;;;;;;;5063765;28;20104;-75
2023/07/30 13:13:13;;;;;;;2.58;1.40;;;;;;;;;;5066213;28;20024;-75
2023/07/30 13:15:38;;;;;;;1.05;1.00;;;;;;;;;;5071419;28;20394;-74
2023/07/30 13:18:04;;;;;;;1.25;1.13;;;;;;;;;;5070358;28;20040;-74
2023/07/30 13:20:32;;;;;;;0.90;0.90;;;;;;;;;;5070788;28;20032;-75
2023/07/30 13:22:58;;;;;;;2.40;1.23;;;;;;;;;;5067141;28;20033;-75
2023/07/30 13:25:24;;;;;;;1.40;1.10;;;;;;;;;;5070735;28;20470;-75
2023/07/30 13:27:50;;;;;;;2.38;1.50;;;;;;;;;;5082174;28;20027;-76
2023/07/30 13:30:16;;;;;;;1.83;1.25;;;;;;;;;;5073836;28;20044;-75
2023/07/30 13:32:42;;;;;;;3.22;1.65;;;;;;;;;;5073124;28;20025;-75
2023/07/30 13:35:08;;;;;;;1.52;1.15;;;;;;;;;;5073426;28;20035;-75
2023/07/30 13:37:34;;;;;;;1.77;1.23;;;;;;;;;;5070300;28;20166;-75
2023/07/30 13:40:00;;;;;;;1.33;1.13;;;;;;;;;;5069451;28;20028;-75
2023/07/30 13:42:26;;;;;;;1.63;1.05;;;;;;;;;;5064041;28;20024;-76
2023/07/30 13:44:52;;;;;;;2.85;1.40;;;;;;;;;;5061721;28;20032;-74
2023/07/30 13:47:18;;;;;;;1.30;1.20;;;;;;;;;;5082050;28;20051;-74
2023/07/30 13:49:44;;;;;;;1.92;1.10;;;;;;;;;;5061620;28;20387;-75
2023/07/30 13:52:10;;;;;;;2.75;1.55;;;;;;;;;;5049510;28;20028;-75
2023/07/30 13:54:36;;;;;;;1.58;1.40;;;;;;;;;;5067773;28;20106;-75
2023/07/30 13:57:03;;;;;;;2.28;1.27;;;;;;;;;;5069894;28;20039;-75
2023/07/30 13:59:29;;;;;;;2.03;1.10;;;;;;;;;;5069730;28;20032;-75
2023/07/30 14:01:55;;;;;;;1.48;1.02;;;;;;;;;;5069455;28;20025;-75
2023/07/30 14:04:21;;;;;;;1.00;1.00;;;;;;;;;;5062581;28;20020;-75
2023/07/30 14:06:47;;;;;;;1.77;1.00;;;;;;;;;;5064064;28;20030;-75
2023/07/30 14:09:13;;;;;;;1.42;1.23;;;;;;;;;;5076466;28;20671;-73
2023/07/30 14:11:42;;;;;;;0.90;0.82;;;;;;;;;;5059332;28;20024;-73
2023/07/30 14:14:08;;;;;;;0.93;0.85;;;;;;;;;;5068153;28;20107;-73
2023/07/30 14:16:34;;;;;;;2.33;1.20;;;;;;;;;;5068682;28;20095;-74
2023/07/30 14:19:00;;;;;;;2.78;1.60;;;;;;;;;;5067504;28;20058;-74
2023/07/30 14:21:26;;;;;;;1.63;1.33;;;;;;;;;;5069441;28;20024;-74
2023/07/30 14:23:52;;;;;;;1.95;0.95;;;;;;;;;;5064500;28;20032;-74
2023/07/30 14:26:18;;;;;;;1.33;1.05;;;;;;;;;;5066928;28;20021;-74
2023/07/30 14:28:44;;;;;;;1.67;0.90;;;;;;;;;;5066900;28;20113;-75
2023/07/30 14:31:11;;;;;;;4.50;1.00;;;;;;;;;;5067657;28;20024;-74
2023/07/30 14:33:37;;;;;;;1.17;1.00;;;;;;;;;;5065592;28;20024;-76
2023/07/30 14:36:03;;;;;;;3.63;1.65;;;;;;;;;;5059802;28;20391;-75
2023/07/30 14:38:31;;;;;;;0.75;0.75;;;;;;;;;;5063952;28;20044;-74